Olathe, KS

12:54 PM CST on January 31, 2015 (GMT -0600)
Northgate Estates | Change Station
CLOSE
Current Station
Personal Weather Station
Location: Olathe, KS
Elevation: 970 ft
Nearby Weather Stations

Elev 970 ft 38.89 °N, 94.82 °W | Updated 4 seconds ago

Rain
Rain
39.6 °F
Feels Like 35 °F
N
6.0
Wind Variable Wind from South
Gusts 10.0 mph

Today
High -- | Low -- °F
--% Chance of Precip.
Yesterday
High -- | Low -- °F
Precip. -- in
7:26 AM 5:39 PM
Waxing Gibbous, 91% visible
Pressure 30.15 in
Visibility 5.0 miles
Clouds Few 800 ft
Mostly Cloudy 2900 ft
Overcast 3700 ft
Windchill 35 °F
Dew Point 37 °F
Humidity 92%
Rainfall 0.25 in
Snow Depth Not available.
UV 0.7 out of 12
Pollen .10 out of 12
Air Quality Not available.
Flu Activity Not available.
SPECI KOJC 311830Z 17012KT 5SM -RA BR FEW008 BKN029 OVC037 04/03 A3015 RMK AO2 P0000 T00390028

More Conditions Fewer Conditions

Pressure 30.15 in
Visibility 5.0 miles
Clouds Few 800 ft
Mostly Cloudy 2900 ft
Overcast 3700 ft
Windchill 35 °F
Dew Point 37 °F
Humidity 92%
Rainfall 0.25 in
Snow Depth Not available.
UV 0.7 out of 12
Pollen .10 out of 12
Air Quality Not available.
Flu Activity Not available.
SPECI KOJC 311830Z 17012KT 5SM -RA BR FEW008 BKN029 OVC037 04/03 A3015 RMK AO2 P0000 T00390028

More Conditions Fewer Conditions

10-Day Weather Forecast

Almanac

Astronomy

Jan. 31, 2015 Rise Set
Actual Time
Civil Twilight
Nautical Twilight
Astronomical Twilight
Moon
Length of Visible Light
Length of Day
Tomorrow will be .
, % of the Moon is Illuminated

Today's Extremes

State Highs State Lows

Community

WunderPhotos

Upload Photos

1,792,149 photos uploaded!

WunderBlogs® & News

Nearby

Air Quality

  Air Quality AQ Index Pollutant
Not available.

Snow Depth

Station Depth Elevation

Earthquake Activity

City Distance Mag. Time & Date
Minimum magnitude displayed is 2.5.

Coastal Water Temperatures

Place Temperature

Nearby Weather Stations